Portada
METAR-TAF:

METAR-TAF

Aeroports :

Damasc, Síria

latitud: 33-25N, longitud: 036-31E, altitud: 608 m

Observació

L'informe es va fer fa 48 minuts, a les 08:00 UTC
Vent 7 kt del Nord-Est
Temperatura 20°C
Humitat 68%
Pressió 1020 hPa
Visibilitat: 8000 m
Escasses núvols a una alçada de 3000 ft
Núvols disperses a una alçada de 10000 ft

METAR: OSDI 220800Z 05007KT 8000 FEW030 SCT100 20/14 Q1020

Hora: 11:48 (08:48 UTC)

Pronòstic

L'informe es va fer fa 4 hores i 8 minuts, a les 04:40 UTC
Pronòstic vàlid del 22 a les 06 UTC al 23 a les 12 UTC
Vent 3 kt amb direcció variable
Visibilitat: 4000 m
boirina
Evolucionant progressivament
l' 22 a les 06 UTC al 22 a les 08 UTC
Vent 10 kt del Sud-Oest
Visibilitat 10 km o més
Escasses núvols a una alçada de 3000 ft

TAF: OSDI 220440Z 2206/2312 VRB03KT 4000 BR BECMG 2206/2208 22010KT 9999 FEW030

Observacions i pronòstics meteorològics de més de 4000 aeroports (METAR i TAF).

Les estacions disponibles són els punts grocs i vermells al mapa.

Posi el ratolí al punt desitjat per veure el nom de l'estació.

Feu clic per veure les observacions i els pronòstics meteorològics.

Per canviar el mapa: feu clic els botons verds amb una creu de color negre per apropar; al botó verd amb un guió per allunyar la imatge; o en les fletxes verdes per a mapes adjacents.


METAR-TAF: